createdAt,value
2018-12-26T00:00:00.000Z,4.1
2018-12-26T00:05:00.000Z,4.1
2018-12-26T00:10:00.000Z,4.1
2018-12-26T00:15:00.000Z,4.2
2018-12-26T00:20:00.000Z,4.2
2018-12-26T00:25:00.000Z,4.2
2018-12-26T00:31:00.000Z,4.2
2018-12-26T00:36:00.000Z,4.2
2018-12-26T00:41:00.000Z,4.1
2018-12-26T00:46:00.000Z,4.1
2018-12-26T00:51:00.000Z,4.0
2018-12-26T00:56:00.000Z,4.0
2018-12-26T01:01:00.000Z,3.9
2018-12-26T01:06:00.000Z,3.9
2018-12-26T01:11:00.000Z,3.9
2018-12-26T01:16:00.000Z,4.0
2018-12-26T01:21:00.000Z,4.0
2018-12-26T01:26:00.000Z,3.9
2018-12-26T01:31:00.000Z,3.9
2018-12-26T01:36:00.000Z,4.0
2018-12-26T01:41:00.000Z,3.9
2018-12-26T01:46:00.000Z,3.9
2018-12-26T01:51:00.000Z,3.9
2018-12-26T01:56:00.000Z,3.9
2018-12-26T02:01:00.000Z,3.9
2018-12-26T02:06:00.000Z,3.9
2018-12-26T02:11:00.000Z,3.9
2018-12-26T02:16:00.000Z,3.9
2018-12-26T02:21:00.000Z,3.9
2018-12-26T02:26:00.000Z,3.9
2018-12-26T02:31:00.000Z,3.9
2018-12-26T02:36:00.000Z,3.9
2018-12-26T02:41:00.000Z,3.9
2018-12-26T02:46:00.000Z,3.9
2018-12-26T02:51:00.000Z,3.9
2018-12-26T02:56:00.000Z,3.9
2018-12-26T03:01:00.000Z,3.9
2018-12-26T03:06:00.000Z,3.9
2018-12-26T03:11:00.000Z,3.9
2018-12-26T03:16:00.000Z,3.9
2018-12-26T03:21:00.000Z,3.9
2018-12-26T03:26:00.000Z,3.9
2018-12-26T03:31:00.000Z,3.9
2018-12-26T03:36:00.000Z,3.8
2018-12-26T03:41:00.000Z,3.8
2018-12-26T03:46:00.000Z,3.8
2018-12-26T03:52:00.000Z,3.7
2018-12-26T03:57:00.000Z,3.7
2018-12-26T04:02:00.000Z,3.7
2018-12-26T04:07:00.000Z,3.6
2018-12-26T04:12:00.000Z,3.6
2018-12-26T04:17:00.000Z,3.6
2018-12-26T04:22:00.000Z,3.6
2018-12-26T04:27:00.000Z,3.6
2018-12-26T04:32:00.000Z,3.6
2018-12-26T04:37:00.000Z,3.6
2018-12-26T04:42:00.000Z,3.6
2018-12-26T04:47:00.000Z,3.6
2018-12-26T04:52:00.000Z,3.6
2018-12-26T04:57:00.000Z,3.6
2018-12-26T05:02:00.000Z,3.6
2018-12-26T05:07:00.000Z,3.6
2018-12-26T05:12:00.000Z,3.6
2018-12-26T05:17:00.000Z,3.5
2018-12-26T05:22:00.000Z,3.5
2018-12-26T05:27:00.000Z,3.5
2018-12-26T05:32:00.000Z,3.6
2018-12-26T05:37:00.000Z,3.6
2018-12-26T05:42:00.000Z,3.5
2018-12-26T05:47:00.000Z,3.5
2018-12-26T05:52:00.000Z,3.5
2018-12-26T05:57:00.000Z,3.5
2018-12-26T06:02:00.000Z,3.5
2018-12-26T06:07:00.000Z,3.4
2018-12-26T06:12:00.000Z,3.4
2018-12-26T06:17:00.000Z,3.4
2018-12-26T06:22:00.000Z,3.4
2018-12-26T06:27:00.000Z,3.4
2018-12-26T06:32:00.000Z,3.4
2018-12-26T06:37:00.000Z,3.4
2018-12-26T06:42:00.000Z,3.4
2018-12-26T06:47:00.000Z,3.4
2018-12-26T06:52:00.000Z,3.4
2018-12-26T06:57:00.000Z,3.3
2018-12-26T07:03:00.000Z,3.3
2018-12-26T07:08:00.000Z,3.3
2018-12-26T07:13:00.000Z,3.3
2018-12-26T07:18:00.000Z,3.3
2018-12-26T07:23:00.000Z,3.3
2018-12-26T07:28:00.000Z,3.3
2018-12-26T07:33:00.000Z,3.4
2018-12-26T07:38:00.000Z,3.4
2018-12-26T07:43:00.000Z,3.4
2018-12-26T07:48:00.000Z,3.5
2018-12-26T07:53:00.000Z,3.5
2018-12-26T07:58:00.000Z,3.5
2018-12-26T08:03:00.000Z,3.5
2018-12-26T08:08:00.000Z,3.6
2018-12-26T08:13:00.000Z,3.6
2018-12-26T08:18:00.000Z,3.7
2018-12-26T08:23:00.000Z,3.7
2018-12-26T08:28:00.000Z,3.8
2018-12-26T08:33:00.000Z,3.9
2018-12-26T08:38:00.000Z,3.9
2018-12-26T08:43:00.000Z,4.0
2018-12-26T08:48:00.000Z,4.0
2018-12-26T08:53:00.000Z,4.1
2018-12-26T08:58:00.000Z,4.2
2018-12-26T09:03:00.000Z,4.4
2018-12-26T09:08:00.000Z,4.5
2018-12-26T09:13:00.000Z,4.6
2018-12-26T09:18:00.000Z,4.6
2018-12-26T09:23:00.000Z,4.7
2018-12-26T09:28:00.000Z,4.9
2018-12-26T09:33:00.000Z,5.5
2018-12-26T09:38:00.000Z,5.3
2018-12-26T09:43:00.000Z,5.2
2018-12-26T09:48:00.000Z,5.2
2018-12-26T09:53:00.000Z,5.1
2018-12-26T09:58:00.000Z,5.1
2018-12-26T10:03:00.000Z,5.2
2018-12-26T10:08:00.000Z,5.2
2018-12-26T10:13:00.000Z,5.2
2018-12-26T10:18:00.000Z,5.3
2018-12-26T10:23:00.000Z,5.4
2018-12-26T10:28:00.000Z,5.5
2018-12-26T10:34:00.000Z,6.4
2018-12-26T10:39:00.000Z,7.1
2018-12-26T10:44:00.000Z,7.7
2018-12-26T10:49:00.000Z,8.1
2018-12-26T10:54:00.000Z,8.2
2018-12-26T10:59:00.000Z,8.6
2018-12-26T11:04:00.000Z,8.6
2018-12-26T11:09:00.000Z,8.8
2018-12-26T11:14:00.000Z,8.6
2018-12-26T11:19:00.000Z,8.5
2018-12-26T11:24:00.000Z,8.5
2018-12-26T11:29:00.000Z,8.3
2018-12-26T11:34:00.000Z,8.1
2018-12-26T11:39:00.000Z,7.9
2018-12-26T11:44:00.000Z,7.7
2018-12-26T11:49:00.000Z,7.5
2018-12-26T11:54:00.000Z,7.2
2018-12-26T11:59:00.000Z,6.9
2018-12-26T12:04:00.000Z,6.6
2018-12-26T12:09:00.000Z,6.3
2018-12-26T12:14:00.000Z,6.1
2018-12-26T12:19:00.000Z,6.1
2018-12-26T12:24:00.000Z,6.0
2018-12-26T12:29:00.000Z,6.0
2018-12-26T12:34:00.000Z,6.0
2018-12-26T12:39:00.000Z,6.0
2018-12-26T12:44:00.000Z,6.1
2018-12-26T12:49:00.000Z,6.1
2018-12-26T12:54:00.000Z,6.1
2018-12-26T12:59:00.000Z,6.2
2018-12-26T13:04:00.000Z,6.2
2018-12-26T13:09:00.000Z,6.1
2018-12-26T13:14:00.000Z,6.1
2018-12-26T13:19:00.000Z,6.0
2018-12-26T13:24:00.000Z,6.0
2018-12-26T13:29:00.000Z,5.9
2018-12-26T13:34:00.000Z,5.9
2018-12-26T13:39:00.000Z,5.9
2018-12-26T13:44:00.000Z,5.9
2018-12-26T13:49:00.000Z,5.9
2018-12-26T13:54:00.000Z,5.8
2018-12-26T13:59:00.000Z,5.7
2018-12-26T14:05:00.000Z,5.7
2018-12-26T14:10:00.000Z,5.6
2018-12-26T14:15:00.000Z,5.5
2018-12-26T14:20:00.000Z,5.5
2018-12-26T14:25:00.000Z,5.4
2018-12-26T14:30:00.000Z,5.4
2018-12-26T14:35:00.000Z,5.3
2018-12-26T14:40:00.000Z,5.2
2018-12-26T14:45:00.000Z,5.2
2018-12-26T14:50:00.000Z,5.1
2018-12-26T14:55:00.000Z,5.1
2018-12-26T15:00:00.000Z,5.0
2018-12-26T15:05:00.000Z,5.0
2018-12-26T15:10:00.000Z,5.0
2018-12-26T15:15:00.000Z,4.9
2018-12-26T15:20:00.000Z,4.9
2018-12-26T15:25:00.000Z,4.8
2018-12-26T15:30:00.000Z,4.7
2018-12-26T15:35:00.000Z,4.7
2018-12-26T15:40:00.000Z,4.7
2018-12-26T15:45:00.000Z,4.6
2018-12-26T15:50:00.000Z,4.6
2018-12-26T15:55:00.000Z,4.6
2018-12-26T16:00:00.000Z,4.5
2018-12-26T16:05:00.000Z,4.5
2018-12-26T16:10:00.000Z,4.4
2018-12-26T16:15:00.000Z,4.3
2018-12-26T16:20:00.000Z,4.3
2018-12-26T16:25:00.000Z,4.2
2018-12-26T16:30:00.000Z,4.2
2018-12-26T16:35:00.000Z,4.1
2018-12-26T16:40:00.000Z,4.1
2018-12-26T16:45:00.000Z,4.0
2018-12-26T16:50:00.000Z,4.0
2018-12-26T16:55:00.000Z,4.0
2018-12-26T17:00:00.000Z,4.0
2018-12-26T17:05:00.000Z,4.0
2018-12-26T17:10:00.000Z,4.0
2018-12-26T17:15:00.000Z,4.0
2018-12-26T17:20:00.000Z,4.1
2018-12-26T17:25:00.000Z,4.1
2018-12-26T17:30:00.000Z,4.1
2018-12-26T17:36:00.000Z,4.2
2018-12-26T17:41:00.000Z,4.2
2018-12-26T17:46:00.000Z,4.3
2018-12-26T17:51:00.000Z,4.3
2018-12-26T17:56:00.000Z,4.3
2018-12-26T18:01:00.000Z,4.3
2018-12-26T18:06:00.000Z,4.3
2018-12-26T18:11:00.000Z,4.3
2018-12-26T18:16:00.000Z,4.3
2018-12-26T18:21:00.000Z,4.3
2018-12-26T18:26:00.000Z,4.4
2018-12-26T18:31:00.000Z,4.4
2018-12-26T18:36:00.000Z,4.5
2018-12-26T18:41:00.000Z,4.5
2018-12-26T18:46:00.000Z,4.6
2018-12-26T18:51:00.000Z,4.6
2018-12-26T18:56:00.000Z,4.6
2018-12-26T19:01:00.000Z,4.7
2018-12-26T19:06:00.000Z,4.7
2018-12-26T19:11:00.000Z,4.7
2018-12-26T19:16:00.000Z,4.8
2018-12-26T19:21:00.000Z,4.8
2018-12-26T19:26:00.000Z,4.8
2018-12-26T19:31:00.000Z,4.8
2018-12-26T19:36:00.000Z,4.8
2018-12-26T19:41:00.000Z,4.8
2018-12-26T19:46:00.000Z,4.8
2018-12-26T19:51:00.000Z,4.8
2018-12-26T19:56:00.000Z,4.8
2018-12-26T20:01:00.000Z,4.8
2018-12-26T20:06:00.000Z,4.8
2018-12-26T20:11:00.000Z,4.8
2018-12-26T20:16:00.000Z,4.8
2018-12-26T20:21:00.000Z,4.8
2018-12-26T20:26:00.000Z,4.8
2018-12-26T20:31:00.000Z,4.8
2018-12-26T20:36:00.000Z,4.7
2018-12-26T20:41:00.000Z,4.7
2018-12-26T20:46:00.000Z,4.7
2018-12-26T20:51:00.000Z,4.6
2018-12-26T20:57:00.000Z,4.5
2018-12-26T21:02:00.000Z,4.4
2018-12-26T21:07:00.000Z,4.4
2018-12-26T21:12:00.000Z,4.3
2018-12-26T21:17:00.000Z,4.3
2018-12-26T21:22:00.000Z,4.3
2018-12-26T21:27:00.000Z,4.2
2018-12-26T21:32:00.000Z,4.2
2018-12-26T21:37:00.000Z,4.2
2018-12-26T21:42:00.000Z,4.2
2018-12-26T21:47:00.000Z,4.2
2018-12-26T21:52:00.000Z,4.2
2018-12-26T21:57:00.000Z,4.2
2018-12-26T22:02:00.000Z,4.3
2018-12-26T22:07:00.000Z,4.3
2018-12-26T22:12:00.000Z,4.3
2018-12-26T22:17:00.000Z,4.3
2018-12-26T22:22:00.000Z,4.3
2018-12-26T22:27:00.000Z,4.3
2018-12-26T22:32:00.000Z,4.4
2018-12-26T22:37:00.000Z,4.4
2018-12-26T22:42:00.000Z,4.4
2018-12-26T22:47:00.000Z,4.5
2018-12-26T22:52:00.000Z,4.5
2018-12-26T22:57:00.000Z,4.5
2018-12-26T23:02:00.000Z,4.5
2018-12-26T23:07:00.000Z,4.4
2018-12-26T23:12:00.000Z,4.4
2018-12-26T23:17:00.000Z,4.4
2018-12-26T23:22:00.000Z,4.4
2018-12-26T23:27:00.000Z,4.4
2018-12-26T23:32:00.000Z,4.4
2018-12-26T23:37:00.000Z,4.4
2018-12-26T23:42:00.000Z,4.4
2018-12-26T23:47:00.000Z,4.4
2018-12-26T23:52:00.000Z,4.5
2018-12-26T23:57:00.000Z,4.5
